Time;durP1;ratioP1;P1;durP2;ratioP2;P2;SDS_P1;SDS_P2;PMS_P1;PMS_P2;Temp;Humidity;BMP_temperature;BMP_pressure;BME280_temperature;BME280_humidity;BME280_pressure;Samples;Min_cycle;Max_cycle;Signal;HPM_P1;HPM_P2
2021/12/09 00:01:33;;;;;;;;;;;1.60;99.90;;;;;;5053344;28;19952;-54
2021/12/09 00:04:01;;;;;;;;;;;1.60;99.90;;;;;;5106728;22;19928;-47
2021/12/09 00:06:31;;;;;;;;;;;1.70;99.90;;;;;;5092807;28;20314;-47
2021/12/09 00:09:00;;;;;;;;;;;1.80;99.90;;;;;;5093869;28;19932;-48
2021/12/09 00:11:28;;;;;;;;;;;1.50;99.90;;;;;;5093546;28;19977;-47
2021/12/09 00:13:55;;;;;;;;;;;1.20;99.90;;;;;;5086967;28;19924;-47
2021/12/09 00:16:21;;;;;;;;;;;1.20;99.90;;;;;;5093276;28;19969;-48
2021/12/09 00:18:48;;;;;;;;;;;1.20;99.90;;;;;;5084521;28;19925;-47
2021/12/09 00:21:15;;;;;;;;;;;1.40;99.90;;;;;;5072741;28;20024;-47
2021/12/09 00:23:44;;;;;;;;;;;1.60;99.90;;;;;;5086953;28;20450;-48
2021/12/09 00:26:10;;;;;;;;;;;1.70;99.90;;;;;;5093564;28;19981;-47
2021/12/09 00:28:37;;;;;;;;;;;1.70;99.90;;;;;;5093734;28;19973;-46
2021/12/09 00:31:04;;;;;;;;;;;1.70;99.90;;;;;;5072624;28;19924;-47
2021/12/09 00:33:31;;;;;;;;;;;1.80;99.90;;;;;;5084580;28;19981;-47
2021/12/09 00:35:59;;;;;;;;;;;1.70;99.90;;;;;;5093478;28;19928;-47
2021/12/09 00:38:36;;;;;;;;;;;1.60;99.90;;;;;;5073458;28;19968;-48
2021/12/09 00:41:05;;;;;;;;;;;1.70;99.90;;;;;;5072574;28;19924;-47
2021/12/09 00:43:33;;;;;;;;;;;1.70;99.90;;;;;;5090030;28;19924;-47
2021/12/09 00:46:00;;;;;;;;;;;1.40;99.90;;;;;;5087577;28;19924;-46
2021/12/09 00:48:27;;;;;;;;;;;1.20;99.90;;;;;;5073049;28;20398;-48
2021/12/09 00:50:53;;;;;;;;;;;1.20;99.90;;;;;;5080706;28;19985;-47
2021/12/09 00:53:20;;;;;;;;;;;1.30;99.90;;;;;;5093293;28;19932;-47
2021/12/09 00:55:47;;;;;;;;;;;1.50;99.90;;;;;;5093343;28;19928;-48
2021/12/09 00:58:15;;;;;;;;;;;1.60;99.90;;;;;;5076277;28;19977;-47
2021/12/09 01:00:43;;;;;;;;;;;1.60;99.90;;;;;;5075806;28;19928;-47
2021/12/09 01:03:10;;;;;;;;;;;1.70;99.90;;;;;;5073798;28;19924;-47
2021/12/09 01:05:37;;;;;;;;;;;1.70;99.90;;;;;;5086043;28;20355;-47
2021/12/09 01:08:07;;;;;;;;;;;1.70;99.90;;;;;;5092955;28;20537;-47
2021/12/09 01:10:34;;;;;;;;;;;1.80;99.90;;;;;;5092308;28;20612;-47
2021/12/09 01:13:00;;;;;;;;;;;1.80;99.90;;;;;;5092441;28;20439;-47
2021/12/09 01:15:28;;;;;;;;;;;1.80;99.90;;;;;;5086579;28;20354;-46
2021/12/09 01:17:55;;;;;;;;;;;1.90;99.90;;;;;;5072465;28;19924;-47
2021/12/09 01:20:25;;;;;;;;;;;1.90;99.90;;;;;;5092051;28;19924;-46
2021/12/09 01:22:53;;;;;;;;;;;1.90;99.90;;;;;;5092750;28;19924;-47
2021/12/09 01:25:20;;;;;;;;;;;2.00;99.90;;;;;;5092563;28;19993;-47
2021/12/09 01:27:48;;;;;;;;;;;1.90;99.90;;;;;;5085101;28;19925;-47
2021/12/09 01:30:17;;;;;;;;;;;1.90;99.90;;;;;;5082186;28;19931;-47
2021/12/09 01:32:50;;;;;;;;;;;1.90;99.90;;;;;;5084790;28;19999;-48
2021/12/09 01:35:17;;;;;;;;;;;2.00;99.90;;;;;;5072332;28;19925;-47
2021/12/09 01:37:45;;;;;;;;;;;2.00;99.90;;;;;;5072353;28;19929;-48
2021/12/09 01:40:12;;;;;;;;;;;1.70;99.90;;;;;;5071901;28;19924;-48
2021/12/09 01:42:39;;;;;;;;;;;1.70;99.90;;;;;;5085644;28;19978;-47
2021/12/09 01:45:06;;;;;;;;;;;1.80;99.90;;;;;;5090708;28;19978;-47
2021/12/09 01:47:33;;;;;;;;;;;1.80;99.90;;;;;;5077218;28;19979;-47
2021/12/09 01:50:01;;;;;;;;;;;1.80;99.90;;;;;;5072187;28;19978;-48
2021/12/09 01:52:28;;;;;;;;;;;1.90;99.90;;;;;;5071450;28;20387;-48
2021/12/09 01:54:54;;;;;;;;;;;2.00;99.90;;;;;;5072899;28;20387;-47
2021/12/09 01:57:21;;;;;;;;;;;2.00;99.90;;;;;;5088678;28;20390;-47
2021/12/09 01:59:48;;;;;;;;;;;2.00;99.90;;;;;;5090861;28;20405;-47
2021/12/09 02:02:15;;;;;;;;;;;2.00;99.90;;;;;;5072534;28;19924;-47
2021/12/09 02:04:42;;;;;;;;;;;2.00;99.90;;;;;;5071928;28;19970;-47
2021/12/09 02:07:10;;;;;;;;;;;2.00;99.90;;;;;;5072014;28;19985;-47
2021/12/09 02:09:38;;;;;;;;;;;2.00;99.90;;;;;;5080310;28;20390;-47
2021/12/09 02:12:06;;;;;;;;;;;2.00;99.90;;;;;;5091103;28;20022;-47
2021/12/09 02:14:33;;;;;;;;;;;2.00;99.90;;;;;;5084455;28;19989;-48
2021/12/09 02:17:00;;;;;;;;;;;2.00;99.90;;;;;;5074216;28;20314;-46
2021/12/09 02:19:27;;;;;;;;;;;2.00;99.90;;;;;;5071901;28;19985;-48
2021/12/09 02:21:55;;;;;;;;;;;2.00;99.90;;;;;;5071092;28;19932;-47
2021/12/09 02:24:21;;;;;;;;;;;2.10;99.90;;;;;;5073290;28;19940;-48
2021/12/09 02:26:50;;;;;;;;;;;2.10;99.90;;;;;;5072010;28;19925;-47
2021/12/09 02:29:17;;;;;;;;;;;2.10;99.90;;;;;;5085552;28;19925;-47
2021/12/09 02:31:44;;;;;;;;;;;2.00;99.90;;;;;;5091284;28;20275;-47
2021/12/09 02:34:11;;;;;;;;;;;2.00;99.90;;;;;;5091834;28;19928;-46
2021/12/09 02:36:40;;;;;;;;;;;2.00;99.90;;;;;;5088459;28;19994;-48
2021/12/09 02:39:14;;;;;;;;;;;2.00;99.90;;;;;;5071510;28;19924;-47
2021/12/09 02:41:42;;;;;;;;;;;1.90;99.90;;;;;;5072207;28;19955;-46
2021/12/09 02:44:10;;;;;;;;;;;1.90;99.90;;;;;;5091734;28;19985;-48
2021/12/09 02:46:38;;;;;;;;;;;1.90;99.90;;;;;;5091754;28;19985;-47
2021/12/09 02:49:06;;;;;;;;;;;1.90;99.90;;;;;;5087682;28;19954;-47
2021/12/09 02:51:33;;;;;;;;;;;1.90;99.90;;;;;;5070782;28;20391;-47
2021/12/09 02:54:01;;;;;;;;;;;1.80;99.90;;;;;;5071418;28;19929;-46
2021/12/09 02:56:29;;;;;;;;;;;1.80;99.90;;;;;;5082046;28;19924;-46
2021/12/09 02:58:56;;;;;;;;;;;1.80;99.90;;;;;;5095570;28;19924;-46
2021/12/09 03:01:24;;;;;;;;;;;1.90;99.90;;;;;;5093094;28;19924;-46
2021/12/09 03:03:55;;;;;;;;;;;1.90;99.90;;;;;;5084258;28;20023;-47
2021/12/09 03:15:34;;;;;;;;;;;2.00;99.90;;;;;;5075173;28;19980;-47
2021/12/09 03:18:00;;;;;;;;;;;2.00;99.90;;;;;;5087884;28;19924;-47
2021/12/09 03:20:27;;;;;;;;;;;2.10;99.90;;;;;;5094377;28;19924;-47
2021/12/09 03:22:54;;;;;;;;;;;2.10;99.90;;;;;;5095166;28;19923;-46
2021/12/09 03:25:21;;;;;;;;;;;2.10;99.90;;;;;;5082258;28;19935;-47
2021/12/09 03:27:48;;;;;;;;;;;2.00;99.90;;;;;;5095053;28;19927;-47
2021/12/09 03:30:16;;;;;;;;;;;2.00;99.90;;;;;;5094388;28;19954;-46
2021/12/09 03:32:44;;;;;;;;;;;2.00;99.90;;;;;;5076524;28;19993;-47
2021/12/09 03:35:12;;;;;;;;;;;2.10;99.90;;;;;;5094763;28;19924;-47
2021/12/09 03:37:39;;;;;;;;;;;2.10;99.90;;;;;;5090904;28;19924;-47
2021/12/09 03:40:07;;;;;;;;;;;2.10;99.90;;;;;;5074371;28;19929;-47
2021/12/09 03:45:37;;;;;;;;;;;2.10;99.90;;;;;;5087167;28;20389;-47
2021/12/09 03:48:06;;;;;;;;;;;2.00;99.90;;;;;;5087738;28;20379;-48
2021/12/09 03:50:33;;;;;;;;;;;2.00;99.90;;;;;;5080515;28;20452;-47
2021/12/09 03:53:00;;;;;;;;;;;2.10;99.90;;;;;;5076137;28;19924;-47
2021/12/09 03:55:27;;;;;;;;;;;2.10;99.90;;;;;;5076075;28;19988;-47
2021/12/09 03:57:54;;;;;;;;;;;2.10;99.90;;;;;;5081363;28;19932;-47
2021/12/09 04:00:23;;;;;;;;;;;2.00;99.90;;;;;;5091553;28;19932;-47
2021/12/09 04:02:49;;;;;;;;;;;2.10;99.90;;;;;;5080241;28;20007;-47
2021/12/09 04:05:18;;;;;;;;;;;2.00;99.90;;;;;;5086753;28;19931;-46
2021/12/09 04:07:44;;;;;;;;;;;2.00;99.90;;;;;;5090796;28;19969;-47
2021/12/09 04:10:11;;;;;;;;;;;2.00;99.90;;;;;;5086019;28;19982;-47
2021/12/09 04:12:38;;;;;;;;;;;2.00;99.90;;;;;;5073628;28;19924;-46
2021/12/09 04:15:05;;;;;;;;;;;2.00;99.90;;;;;;5075133;28;19994;-47
2021/12/09 04:17:32;;;;;;;;;;;2.00;99.90;;;;;;5077437;28;19928;-46
2021/12/09 04:19:59;;;;;;;;;;;2.00;99.90;;;;;;5090180;28;20367;-47
2021/12/09 04:22:27;;;;;;;;;;;2.00;99.90;;;;;;5087879;28;19924;-47
2021/12/09 04:24:54;;;;;;;;;;;2.00;99.90;;;;;;5073464;28;20394;-47
2021/12/09 04:27:21;;;;;;;;;;;2.10;99.90;;;;;;5078107;28;19993;-47
2021/12/09 04:29:48;;;;;;;;;;;2.00;99.90;;;;;;5093851;28;19928;-47
2021/12/09 04:32:14;;;;;;;;;;;1.70;99.90;;;;;;5077304;28;19925;-47
2021/12/09 04:34:41;;;;;;;;;;;1.70;99.90;;;;;;5075925;28;19932;-47
2021/12/09 04:37:08;;;;;;;;;;;1.80;99.90;;;;;;5082644;28;19924;-46
2021/12/09 04:39:36;;;;;;;;;;;1.90;99.90;;;;;;5076643;28;19928;-47
2021/12/09 04:42:04;;;;;;;;;;;2.00;99.90;;;;;;5076109;28;19954;-48
2021/12/09 04:44:31;;;;;;;;;;;2.00;99.90;;;;;;5093671;28;19924;-46
2021/12/09 04:47:00;;;;;;;;;;;2.00;99.90;;;;;;5075712;28;19924;-47
2021/12/09 04:49:26;;;;;;;;;;;2.00;99.90;;;;;;5073186;28;19959;-47
2021/12/09 04:51:53;;;;;;;;;;;2.00;99.90;;;;;;5073435;28;19924;-47
2021/12/09 04:54:20;;;;;;;;;;;2.10;99.90;;;;;;5072980;28;19924;-47
2021/12/09 04:56:49;;;;;;;;;;;2.00;99.90;;;;;;5073106;28;19925;-47
2021/12/09 04:59:15;;;;;;;;;;;1.50;99.90;;;;;;5073179;28;20003;-48
2021/12/09 05:01:48;;;;;;;;;;;1.40;99.90;;;;;;5072035;28;19924;-46
2021/12/09 05:04:14;;;;;;;;;;;1.50;99.90;;;;;;5092445;28;19924;-47
2021/12/09 05:06:41;;;;;;;;;;;1.60;99.90;;;;;;5091203;28;19973;-47
2021/12/09 05:09:11;;;;;;;;;;;1.70;99.90;;;;;;5092988;28;20375;-47
2021/12/09 05:11:48;;;;;;;;;;;1.70;99.90;;;;;;5092353;28;20015;-47
2021/12/09 05:14:17;;;;;;;;;;;1.80;99.90;;;;;;5076602;28;19931;-47
2021/12/09 05:16:44;;;;;;;;;;;1.70;99.90;;;;;;5084437;28;19924;-47
2021/12/09 05:19:11;;;;;;;;;;;1.80;99.90;;;;;;5089990;28;19932;-47
2021/12/09 05:21:39;;;;;;;;;;;1.80;99.90;;;;;;5079414;28;19971;-47
2021/12/09 05:24:06;;;;;;;;;;;1.90;99.90;;;;;;5092583;28;19924;-46
2021/12/09 05:26:40;;;;;;;;;;;1.90;99.90;;;;;;5080805;28;19978;-47
2021/12/09 05:29:07;;;;;;;;;;;1.90;99.90;;;;;;5092670;28;19924;-47
2021/12/09 05:34:20;;;;;;;;;;;1.80;99.90;;;;;;5092542;28;20309;-47
2021/12/09 05:36:47;;;;;;;;;;;1.80;99.90;;;;;;5092512;28;20352;-47
2021/12/09 05:39:14;;;;;;;;;;;2.00;99.90;;;;;;5079429;28;19924;-47
2021/12/09 05:41:42;;;;;;;;;;;1.90;99.90;;;;;;5076824;28;19932;-47
2021/12/09 05:44:10;;;;;;;;;;;1.80;99.90;;;;;;5078240;28;20386;-46
2021/12/09 05:46:42;;;;;;;;;;;1.80;99.90;;;;;;5079664;28;19925;-50
2021/12/09 05:49:12;;;;;;;;;;;1.80;99.90;;;;;;5092400;28;20329;-48
2021/12/09 05:51:42;;;;;;;;;;;1.90;99.90;;;;;;5089769;28;20418;-48
2021/12/09 05:54:13;;;;;;;;;;;1.80;99.90;;;;;;5089066;28;20016;-49
2021/12/09 05:56:40;;;;;;;;;;;1.90;99.90;;;;;;5084642;28;19928;-48
2021/12/09 05:59:08;;;;;;;;;;;1.90;99.90;;;;;;5071747;28;19924;-49
2021/12/09 06:01:35;;;;;;;;;;;1.70;99.90;;;;;;5070849;28;19924;-51
2021/12/09 06:04:04;;;;;;;;;;;1.70;99.90;;;;;;5071559;28;19978;-47
2021/12/09 06:06:37;;;;;;;;;;;1.50;99.90;;;;;;5071661;28;20394;-49
2021/12/09 06:09:08;;;;;;;;;;;1.70;99.90;;;;;;5072870;28;19971;-47
2021/12/09 06:11:35;;;;;;;;;;;2.10;99.90;;;;;;5092357;22;19924;-53
2021/12/09 06:14:02;;;;;;;;;;;1.60;99.90;;;;;;5050562;28;19924;-53
2021/12/09 06:16:32;;;;;;;;;;;1.40;99.90;;;;;;5051428;28;20001;-53
2021/12/09 06:18:59;;;;;;;;;;;1.50;99.90;;;;;;5051766;28;20402;-51
2021/12/09 06:21:28;;;;;;;;;;;1.60;99.90;;;;;;5060813;28;20356;-54
2021/12/09 06:23:55;;;;;;;;;;;1.50;99.90;;;;;;5063620;28;19925;-53
2021/12/09 06:26:25;;;;;;;;;;;1.30;99.90;;;;;;5050434;28;19925;-53
2021/12/09 06:28:52;;;;;;;;;;;1.50;99.90;;;;;;5051451;28;19932;-53
2021/12/09 06:31:20;;;;;;;;;;;1.80;99.90;;;;;;5049183;28;19968;-53
2021/12/09 06:33:47;;;;;;;;;;;1.80;99.90;;;;;;5050049;28;19924;-53
2021/12/09 06:36:14;;;;;;;;;;;1.60;99.90;;;;;;5055566;28;19931;-53
2021/12/09 06:38:48;;;;;;;;;;;1.60;99.90;;;;;;5054441;28;19960;-53
2021/12/09 06:41:15;;;;;;;;;;;1.70;99.90;;;;;;5050016;28;20405;-53
2021/12/09 06:43:46;;;;;;;;;;;1.70;99.90;;;;;;5054893;28;20437;-54
2021/12/09 06:46:15;;;;;;;;;;;1.60;99.90;;;;;;5052594;28;20019;-54
2021/12/09 06:48:45;;;;;;;;;;;1.70;99.90;;;;;;5057845;28;19931;-54
2021/12/09 06:51:12;;;;;;;;;;;1.90;99.90;;;;;;5053849;28;19931;-53
2021/12/09 06:53:39;;;;;;;;;;;1.90;99.90;;;;;;5054217;28;20406;-53
2021/12/09 06:56:08;;;;;;;;;;;1.70;99.90;;;;;;5054435;28;19925;-54
2021/12/09 06:58:35;;;;;;;;;;;1.50;99.90;;;;;;5054804;28;20421;-53
2021/12/09 07:01:02;;;;;;;;;;;1.70;99.90;;;;;;5050346;28;19925;-53
2021/12/09 07:03:33;;;;;;;;;;;1.60;99.90;;;;;;5052904;28;19975;-54
2021/12/09 07:06:06;;;;;;;;;;;1.60;99.90;;;;;;5049113;28;19932;-52
2021/12/09 07:08:33;;;;;;;;;;;1.60;99.90;;;;;;5042418;28;19937;-52
2021/12/09 07:11:00;;;;;;;;;;;1.70;99.90;;;;;;5056466;28;19925;-53
2021/12/09 07:13:30;;;;;;;;;;;1.70;99.90;;;;;;5054315;28;20010;-54
2021/12/09 07:15:57;;;;;;;;;;;2.00;99.90;;;;;;5053894;28;19925;-54
2021/12/09 07:18:27;;;;;;;;;;;1.80;99.90;;;;;;5053177;28;19928;-52
2021/12/09 07:20:54;;;;;;;;;;;1.60;99.90;;;;;;5053611;28;20011;-53
2021/12/09 07:23:21;;;;;;;;;;;1.50;99.90;;;;;;5053846;28;20492;-54
2021/12/09 07:25:51;;;;;;;;;;;1.70;99.90;;;;;;5051219;28;20437;-54
2021/12/09 07:28:18;;;;;;;;;;;1.90;99.90;;;;;;5052916;28;19931;-54
2021/12/09 07:30:46;;;;;;;;;;;2.00;99.90;;;;;;5052067;28;20603;-52
2021/12/09 07:33:13;;;;;;;;;;;2.00;99.90;;;;;;5042814;28;19995;-54
2021/12/09 07:35:40;;;;;;;;;;;2.00;99.90;;;;;;5054031;28;20445;-54
2021/12/09 07:38:10;;;;;;;;;;;2.00;99.90;;;;;;5054407;28;19976;-55
2021/12/09 07:40:40;;;;;;;;;;;2.20;99.90;;;;;;5053700;28;19987;-55
2021/12/09 07:43:10;;;;;;;;;;;2.00;99.90;;;;;;5052419;28;19963;-53
2021/12/09 07:45:37;;;;;;;;;;;2.00;99.90;;;;;;5054206;28;19925;-54
2021/12/09 07:48:06;;;;;;;;;;;1.90;99.90;;;;;;5053754;28;19959;-54
2021/12/09 07:50:33;;;;;;;;;;;1.80;99.90;;;;;;5052715;28;20357;-53
2021/12/09 07:53:03;;;;;;;;;;;1.60;99.90;;;;;;5051874;28;19939;-54
2021/12/09 07:55:30;;;;;;;;;;;1.80;99.90;;;;;;5052990;28;20387;-54
2021/12/09 07:58:03;;;;;;;;;;;1.70;99.90;;;;;;5054237;28;20015;-52
2021/12/09 08:00:34;;;;;;;;;;;1.80;99.90;;;;;;5053301;28;19995;-53
2021/12/09 08:03:01;;;;;;;;;;;1.80;99.90;;;;;;5049544;28;20442;-54
2021/12/09 08:05:34;;;;;;;;;;;1.70;99.90;;;;;;5053268;28;19968;-54
2021/12/09 08:08:01;;;;;;;;;;;1.80;99.90;;;;;;5053493;28;20429;-54
2021/12/09 08:10:28;;;;;;;;;;;2.10;99.90;;;;;;5052662;28;19928;-54
2021/12/09 08:13:01;;;;;;;;;;;2.20;99.90;;;;;;5051330;28;20306;-53
2021/12/09 08:15:29;;;;;;;;;;;2.30;99.90;;;;;;5043519;28;20538;-52
2021/12/09 08:18:14;;;;;;;;;;;2.40;99.90;;;;;;5053842;28;19976;-53
2021/12/09 08:20:46;;;;;;;;;;;2.60;99.90;;;;;;5052521;28;19943;-53
2021/12/09 08:23:16;;;;;;;;;;;2.70;99.90;;;;;;5053513;28;19924;-54
2021/12/09 08:25:46;;;;;;;;;;;2.80;99.90;;;;;;5053395;28;20023;-54
2021/12/09 08:28:13;;;;;;;;;;;2.80;99.90;;;;;;5053505;28;19956;-54
2021/12/09 08:30:46;;;;;;;;;;;2.90;99.90;;;;;;5052217;28;19967;-54
2021/12/09 08:33:13;;;;;;;;;;;2.90;99.90;;;;;;5052995;28;19924;-55
2021/12/09 08:35:40;;;;;;;;;;;2.90;99.90;;;;;;5052222;28;19928;-54
2021/12/09 08:38:08;;;;;;;;;;;3.00;99.90;;;;;;5053271;28;19975;-55
2021/12/09 08:40:35;;;;;;;;;;;2.80;99.90;;;;;;5052119;28;20014;-53
2021/12/09 08:43:05;;;;;;;;;;;2.60;99.90;;;;;;5052519;28;20020;-54
2021/12/09 08:45:32;;;;;;;;;;;2.60;99.90;;;;;;5053179;28;19976;-54
2021/12/09 08:47:59;;;;;;;;;;;2.80;99.90;;;;;;5053008;28;19928;-54
2021/12/09 08:50:32;;;;;;;;;;;3.00;99.90;;;;;;5052250;28;19929;-54
2021/12/09 08:53:00;;;;;;;;;;;2.90;99.90;;;;;;5052935;28;20019;-54
2021/12/09 08:55:28;;;;;;;;;;;3.10;99.90;;;;;;5052360;28;19925;-55
2021/12/09 08:57:55;;;;;;;;;;;3.30;99.90;;;;;;5052644;28;19975;-54
2021/12/09 09:00:23;;;;;;;;;;;3.40;99.90;;;;;;5052070;28;19924;-54
2021/12/09 09:02:52;;;;;;;;;;;3.50;99.90;;;;;;5052678;28;20012;-54
2021/12/09 09:05:19;;;;;;;;;;;3.40;99.90;;;;;;5052313;28;19971;-54
2021/12/09 09:07:47;;;;;;;;;;;3.10;99.90;;;;;;5052663;28;19982;-53
2021/12/09 09:10:15;;;;;;;;;;;2.70;99.90;;;;;;5052593;28;19925;-54
2021/12/09 09:12:43;;;;;;;;;;;2.60;99.90;;;;;;5052322;28;19978;-54
2021/12/09 09:15:11;;;;;;;;;;;2.60;99.90;;;;;;5051922;28;19932;-54
2021/12/09 09:17:37;;;;;;;;;;;2.70;99.90;;;;;;5052426;28;20395;-54
2021/12/09 09:20:05;;;;;;;;;;;2.70;99.90;;;;;;5046156;28;19925;-54
2021/12/09 09:22:32;;;;;;;;;;;2.80;99.90;;;;;;5031669;28;20338;-53
2021/12/09 09:24:59;;;;;;;;;;;2.70;99.90;;;;;;5049286;28;19966;-54
2021/12/09 09:27:25;;;;;;;;;;;2.90;99.90;;;;;;5052542;28;20369;-56
2021/12/09 09:29:53;;;;;;;;;;;3.10;99.90;;;;;;5044307;28;19987;-53
2021/12/09 09:32:20;;;;;;;;;;;3.30;99.90;;;;;;5031738;28;19925;-53
2021/12/09 09:34:53;;;;;;;;;;;3.50;99.90;;;;;;5035990;28;21619;-53
2021/12/09 09:37:20;;;;;;;;;;;3.60;99.90;;;;;;5052047;28;19925;-54
2021/12/09 09:39:47;;;;;;;;;;;3.90;99.90;;;;;;5052244;28;19929;-54
2021/12/09 09:42:32;;;;;;;;;;;4.00;99.90;;;;;;5051508;28;19931;-54
2021/12/09 09:45:01;;;;;;;;;;;4.00;99.90;;;;;;5051698;28;19925;-54
2021/12/09 09:47:28;;;;;;;;;;;4.20;99.90;;;;;;5051364;28;20384;-53
2021/12/09 09:49:57;;;;;;;;;;;4.20;99.90;;;;;;5051875;28;19978;-54
2021/12/09 09:52:24;;;;;;;;;;;4.40;99.90;;;;;;5050825;28;19929;-57
2021/12/09 09:54:52;;;;;;;;;;;4.60;99.90;;;;;;5051301;28;19971;-54
2021/12/09 09:57:19;;;;;;;;;;;4.50;99.90;;;;;;5051992;28;19971;-53
2021/12/09 09:59:46;;;;;;;;;;;4.60;99.90;;;;;;5051890;28;19925;-56
2021/12/09 10:02:14;;;;;;;;;;;4.60;99.90;;;;;;5051079;28;19924;-54
2021/12/09 10:04:47;;;;;;;;;;;4.60;99.90;;;;;;5050397;28;20002;-53
2021/12/09 10:07:17;;;;;;;;;;;4.60;99.90;;;;;;5050392;28;20020;-53
2021/12/09 10:09:44;;;;;;;;;;;4.70;99.90;;;;;;5051085;28;20526;-52
2021/12/09 10:12:12;;;;;;;;;;;4.50;99.90;;;;;;5050893;28;19924;-54
2021/12/09 10:14:39;;;;;;;;;;;4.20;99.90;;;;;;5050741;28;19925;-56
2021/12/09 10:17:07;;;;;;;;;;;4.10;99.90;;;;;;5051948;28;19929;-53
2021/12/09 10:19:36;;;;;;;;;;;4.30;99.90;;;;;;5051743;28;20376;-53
2021/12/09 10:22:07;;;;;;;;;;;4.10;99.90;;;;;;5051131;28;19929;-55
2021/12/09 10:24:34;;;;;;;;;;;4.30;99.90;;;;;;5051452;28;19925;-54
2021/12/09 10:27:01;;;;;;;;;;;4.20;99.90;;;;;;5048382;28;19932;-53
2021/12/09 10:29:32;;;;;;;;;;;4.20;99.90;;;;;;5050921;28;19929;-54
2021/12/09 10:32:01;;;;;;;;;;;4.20;99.90;;;;;;5051071;28;19928;-52
2021/12/09 10:34:39;;;;;;;;;;;3.70;99.90;;;;;;5050669;28;19935;-53
2021/12/09 10:37:10;;;;;;;;;;;3.30;99.90;;;;;;5044060;28;19932;-51
2021/12/09 10:39:39;;;;;;;;;;;3.30;99.90;;;;;;5050858;28;20337;-55
2021/12/09 10:42:07;;;;;;;;;;;3.60;99.90;;;;;;5050585;28;19929;-53
2021/12/09 10:44:35;;;;;;;;;;;3.90;99.90;;;;;;5051514;28;20387;-53
2021/12/09 10:47:09;;;;;;;;;;;3.80;99.90;;;;;;5041853;28;19925;-53
2021/12/09 10:49:50;;;;;;;;;;;3.50;99.90;;;;;;5045516;28;19932;-52
2021/12/09 10:52:36;;;;;;;;;;;3.50;99.90;;;;;;5050611;28;19940;-55
2021/12/09 10:55:07;;;;;;;;;;;3.80;99.90;;;;;;5051463;28;19931;-55
2021/12/09 10:57:35;;;;;;;;;;;3.60;99.90;;;;;;5051594;28;19925;-54
2021/12/09 11:00:15;;;;;;;;;;;3.70;99.90;;;;;;5050883;28;19924;-53
2021/12/09 11:02:56;;;;;;;;;;;3.80;99.90;;;;;;5051094;28;19970;-53
2021/12/09 11:05:23;;;;;;;;;;;3.90;99.90;;;;;;5051407;28;20449;-53
2021/12/09 11:07:51;;;;;;;;;;;3.90;99.90;;;;;;5050927;28;19929;-54
2021/12/09 11:10:20;;;;;;;;;;;3.90;99.90;;;;;;5050503;28;20387;-54
2021/12/09 11:12:50;;;;;;;;;;;3.90;99.90;;;;;;5051063;28;20429;-52
2021/12/09 11:15:18;;;;;;;;;;;4.00;99.90;;;;;;5051150;28;19925;-53
2021/12/09 11:17:49;;;;;;;;;;;4.00;99.90;;;;;;5052368;28;19931;-53
2021/12/09 11:20:36;;;;;;;;;;;4.10;99.90;;;;;;5054366;28;20310;-58
2021/12/09 11:23:21;;;;;;;;;;;4.20;99.90;;;;;;5054448;28;19924;-53
2021/12/09 11:25:48;;;;;;;;;;;4.40;99.90;;;;;;5054820;28;19925;-52
2021/12/09 11:28:14;;;;;;;;;;;4.20;99.90;;;;;;5054585;28;20374;-53
2021/12/09 11:30:59;;;;;;;;;;;4.20;99.90;;;;;;5053179;28;19933;-53
2021/12/09 11:33:31;;;;;;;;;;;4.30;99.90;;;;;;5052949;28;19975;-55
2021/12/09 11:36:00;;;;;;;;;;;4.40;99.90;;;;;;5054176;28;20618;-56
2021/12/09 11:38:44;;;;;;;;;;;4.40;99.90;;;;;;5054478;28;19951;-52
2021/12/09 11:41:26;;;;;;;;;;;4.50;99.90;;;;;;5053411;28;19947;-53
2021/12/09 11:43:52;;;;;;;;;;;4.00;99.90;;;;;;5049391;28;19967;-54
2021/12/09 11:46:19;;;;;;;;;;;4.00;99.90;;;;;;5051143;28;19929;-53
2021/12/09 11:48:46;;;;;;;;;;;4.20;99.90;;;;;;5054551;28;19925;-53
2021/12/09 11:51:13;;;;;;;;;;;4.40;99.90;;;;;;5053259;28;19978;-52
2021/12/09 11:53:43;;;;;;;;;;;4.50;99.90;;;;;;5054219;28;19928;-53
2021/12/09 11:56:22;;;;;;;;;;;4.60;99.90;;;;;;5053018;28;19924;-53
2021/12/09 11:59:19;;;;;;;;;;;4.50;99.90;;;;;;5053989;28;19929;-53
2021/12/09 12:08:00;;;;;;;;;;;4.30;99.90;;;;;;5010065;28;20015;-53
2021/12/09 12:13:33;;;;;;;;;;;4.60;99.90;;;;;;5063587;22;19936;-48
2021/12/09 12:16:27;;;;;;;;;;;4.90;99.90;;;;;;5049967;28;20310;-48
2021/12/09 12:18:59;;;;;;;;;;;5.10;99.90;;;;;;5053226;28;19929;-48
2021/12/09 12:21:52;;;;;;;;;;;5.20;99.90;;;;;;5060319;28;20001;-47
2021/12/09 12:25:02;;;;;;;;;;;5.30;99.90;;;;;;5059652;28;19925;-47
2021/12/09 12:27:43;;;;;;;;;;;4.80;99.90;;;;;;5033216;28;19925;-48
2021/12/09 12:35:57;;;;;;;;;;;4.80;99.90;;;;;;5055794;28;20418;-50
2021/12/09 12:38:47;;;;;;;;;;;4.50;99.90;;;;;;5053503;28;19925;-48
2021/12/09 12:41:16;;;;;;;;;;;4.70;99.90;;;;;;5053681;28;20268;-47
2021/12/09 12:43:52;;;;;;;;;;;4.80;99.90;;;;;;5052703;28;19971;-48
2021/12/09 12:46:39;;;;;;;;;;;4.90;99.90;;;;;;5052369;28;19931;-48
2021/12/09 12:49:15;;;;;;;;;;;4.90;99.90;;;;;;5050844;28;19928;-48
2021/12/09 12:51:51;;;;;;;;;;;5.00;99.90;;;;;;5063249;28;19925;-49
2021/12/09 12:54:37;;;;;;;;;;;5.00;99.90;;;;;;5052575;28;19925;-47
2021/12/09 12:57:06;;;;;;;;;;;5.00;99.90;;;;;;5052933;28;19932;-50
2021/12/09 12:59:37;;;;;;;;;;;5.10;99.90;;;;;;5052455;28;19925;-48
2021/12/09 13:02:14;;;;;;;;;;;5.20;99.90;;;;;;5051601;28;19964;-48
2021/12/09 13:04:49;;;;;;;;;;;5.20;99.90;;;;;;5052207;28;19948;-48
2021/12/09 13:07:22;;;;;;;;;;;5.20;99.90;;;;;;5051423;28;20020;-49
2021/12/09 13:10:02;;;;;;;;;;;4.90;99.90;;;;;;5053857;28;20453;-48
2021/12/09 13:12:35;;;;;;;;;;;4.70;99.90;;;;;;5072024;28;19970;-48
2021/12/09 13:15:11;;;;;;;;;;;4.60;99.90;;;;;;5059449;28;19925;-47
2021/12/09 13:17:39;;;;;;;;;;;4.60;99.90;;;;;;5052834;28;19931;-48
2021/12/09 13:20:14;;;;;;;;;;;4.50;99.90;;;;;;5051273;28;20458;-50
2021/12/09 13:22:41;;;;;;;;;;;4.50;99.90;;;;;;5051699;28;19925;-48
2021/12/09 13:25:16;;;;;;;;;;;4.40;99.90;;;;;;5051552;28;19924;-50
2021/12/09 13:27:56;;;;;;;;;;;4.30;99.90;;;;;;5051888;28;20489;-48
2021/12/09 13:33:26;;;;;;;;;;;4.20;99.90;;;;;;5043390;28;19929;-47
2021/12/09 13:47:29;;;;;;;;;;;4.60;99.90;;;;;;5051766;28;20371;-47
2021/12/09 13:50:00;;;;;;;;;;;4.50;99.90;;;;;;5050610;28;19925;-48
2021/12/09 13:55:13;;;;;;;;;;;3.70;99.90;;;;;;5051932;28;19998;-48
2021/12/09 13:57:41;;;;;;;;;;;3.80;99.90;;;;;;5051556;28;19978;-47
2021/12/09 14:00:26;;;;;;;;;;;4.00;99.90;;;;;;5051081;28;19983;-47
2021/12/09 14:02:55;;;;;;;;;;;4.20;99.90;;;;;;5044315;28;19964;-49
2021/12/09 14:05:23;;;;;;;;;;;4.20;99.90;;;;;;5050745;28;19925;-47
2021/12/09 14:07:57;;;;;;;;;;;4.00;99.90;;;;;;5039818;28;20410;-47
2021/12/09 14:10:28;;;;;;;;;;;4.30;99.90;;;;;;5041156;28;20383;-47
2021/12/09 14:13:02;;;;;;;;;;;4.40;99.90;;;;;;5051452;28;19925;-47
2021/12/09 14:15:36;;;;;;;;;;;4.50;99.90;;;;;;5032941;28;19925;-50
2021/12/09 14:18:09;;;;;;;;;;;4.50;99.90;;;;;;5030668;28;19932;-48
2021/12/09 14:20:36;;;;;;;;;;;4.60;99.90;;;;;;5035382;28;19929;-48
2021/12/09 14:23:03;;;;;;;;;;;4.60;99.90;;;;;;5050498;28;20007;-48
2021/12/09 14:25:32;;;;;;;;;;;4.60;99.90;;;;;;5050637;28;19925;-48
2021/12/09 14:27:59;;;;;;;;;;;4.70;99.90;;;;;;5031597;28;19925;-46
2021/12/09 14:30:27;;;;;;;;;;;4.60;99.90;;;;;;5034089;28;19929;-46
2021/12/09 14:32:55;;;;;;;;;;;4.50;99.90;;;;;;5051588;28;20349;-48
2021/12/09 14:35:25;;;;;;;;;;;4.40;99.90;;;;;;5051716;28;19948;-48
2021/12/09 14:37:54;;;;;;;;;;;4.40;99.90;;;;;;5051609;28;19931;-47
2021/12/09 14:40:23;;;;;;;;;;;4.40;99.90;;;;;;5051888;28;19932;-50
2021/12/09 14:42:54;;;;;;;;;;;4.40;99.90;;;;;;5071674;28;19924;-47
2021/12/09 14:45:22;;;;;;;;;;;4.20;99.90;;;;;;5071645;28;19967;-48
2021/12/09 14:48:00;;;;;;;;;;;4.00;99.90;;;;;;5071581;28;19924;-47
2021/12/09 14:50:33;;;;;;;;;;;3.80;99.90;;;;;;5053517;28;19928;-47
2021/12/09 14:52:59;;;;;;;;;;;3.70;99.90;;;;;;5065482;28;19929;-47
2021/12/09 14:55:29;;;;;;;;;;;3.80;99.90;;;;;;5055250;28;19936;-48
2021/12/09 14:58:02;;;;;;;;;;;3.90;99.90;;;;;;5055129;28;19928;-47
2021/12/09 15:00:30;;;;;;;;;;;3.90;99.90;;;;;;5056070;28;19924;-47
2021/12/09 15:02:57;;;;;;;;;;;3.80;99.90;;;;;;5075117;28;19929;-48
2021/12/09 15:05:24;;;;;;;;;;;3.50;99.90;;;;;;5058929;28;19925;-47
2021/12/09 15:08:02;;;;;;;;;;;3.30;99.90;;;;;;5055025;28;19971;-47
2021/12/09 15:10:31;;;;;;;;;;;3.30;99.90;;;;;;5055757;28;19970;-48
2021/12/09 15:12:59;;;;;;;;;;;3.50;99.90;;;;;;5074791;28;19974;-47
2021/12/09 15:15:27;;;;;;;;;;;3.60;99.90;;;;;;5058334;28;19925;-47
2021/12/09 15:17:58;;;;;;;;;;;3.60;99.90;;;;;;5053855;28;20390;-47
2021/12/09 15:20:29;;;;;;;;;;;3.60;99.90;;;;;;5053597;28;19943;-48
2021/12/09 15:23:06;;;;;;;;;;;3.50;99.90;;;;;;5074757;28;19974;-47
2021/12/09 15:25:34;;;;;;;;;;;3.30;99.90;;;;;;5071475;28;19932;-48
2021/12/09 15:28:01;;;;;;;;;;;3.30;99.90;;;;;;5054465;28;20014;-48
2021/12/09 15:30:55;;;;;;;;;;;3.20;99.90;;;;;;5054069;28;20308;-47
2021/12/09 15:33:25;;;;;;;;;;;3.30;99.90;;;;;;5015747;28;19924;-47